createdAt,value
2023-04-07T04:03:12.959Z,28.60
2023-04-07T04:05:44.782Z,30.77
2023-04-07T04:08:16.484Z,29.77
2023-04-07T04:10:48.153Z,28.70
2023-04-07T04:13:19.832Z,29.60
2023-04-07T04:15:51.531Z,27.92
2023-04-07T04:18:24.587Z,28.63
2023-04-07T04:20:56.236Z,28.30
2023-04-07T04:23:27.933Z,29.33
2023-04-07T04:25:59.683Z,28.43
2023-04-07T04:28:31.395Z,29.35
2023-04-07T04:31:03.081Z,30.73
2023-04-07T04:33:36.112Z,29.23
2023-04-07T04:36:07.993Z,28.70
2023-04-07T04:38:39.726Z,30.33
2023-04-07T04:41:11.388Z,30.40
2023-04-07T04:43:43.085Z,29.47
2023-04-07T04:46:14.729Z,31.07
2023-04-07T04:48:47.758Z,30.43
2023-04-07T04:51:19.451Z,29.20
2023-04-07T04:53:51.329Z,30.03
2023-04-07T04:56:23.187Z,30.27
2023-04-07T04:58:54.874Z,29.53
2023-04-07T05:01:26.555Z,29.83
2023-04-07T05:03:59.970Z,28.73
2023-04-07T05:06:31.813Z,29.20
2023-04-07T05:09:03.572Z,28.43
2023-04-07T05:11:35.227Z,27.50
2023-04-07T05:14:06.910Z,27.73
2023-04-07T05:16:38.622Z,25.65
2023-04-07T05:19:11.776Z,24.63
2023-04-07T05:21:43.456Z,24.17
2023-04-07T05:24:15.130Z,24.52
2023-04-07T05:26:46.833Z,23.50
2023-04-07T05:29:18.515Z,23.17
2023-04-07T05:31:50.233Z,27.17
2023-04-07T05:34:23.321Z,22.73
2023-04-07T05:36:54.982Z,20.40
2023-04-07T05:39:26.663Z,20.70
2023-04-07T05:41:58.302Z,19.35
2023-04-07T05:44:29.986Z,19.80
2023-04-07T05:47:01.650Z,18.10
2023-04-07T05:49:34.734Z,17.07
2023-04-07T05:52:06.461Z,18.00
2023-04-07T05:54:38.131Z,16.80
2023-04-07T05:57:09.784Z,16.00
2023-04-07T05:59:41.504Z,15.88
2023-04-07T06:02:13.603Z,16.73
2023-04-07T06:04:46.691Z,15.15
2023-04-07T06:07:18.347Z,14.43
2023-04-07T06:09:50.028Z,15.40
2023-04-07T06:12:21.670Z,15.60
2023-04-07T06:14:53.723Z,15.57
2023-04-07T06:17:25.462Z,13.40
2023-04-07T06:19:58.564Z,14.00
2023-04-07T06:22:30.240Z,13.60
2023-04-07T06:25:01.901Z,13.27
2023-04-07T06:27:33.542Z,12.07
2023-04-07T06:30:06.291Z,11.37
2023-04-07T06:32:38.005Z,10.43
2023-04-07T06:35:11.158Z,10.40
2023-04-07T06:37:42.864Z,9.90
2023-04-07T06:40:14.810Z,9.77
2023-04-07T06:42:46.550Z,10.73
2023-04-07T06:45:18.244Z,9.80
2023-04-07T06:47:50.109Z,9.03
2023-04-07T06:50:23.166Z,8.73
2023-04-07T06:52:54.830Z,9.13
2023-04-07T06:55:26.542Z,9.67
2023-04-07T06:57:58.249Z,9.60
2023-04-07T07:00:30.053Z,8.73
2023-04-07T07:03:01.817Z,8.77
2023-04-07T07:05:34.875Z,8.23
2023-04-07T07:08:06.540Z,8.17
2023-04-07T07:10:38.254Z,8.23
2023-04-07T07:13:09.919Z,7.60
2023-04-07T07:15:41.616Z,8.43
2023-04-07T07:18:13.323Z,8.10
2023-04-07T07:20:46.346Z,7.90
2023-04-07T07:23:18.065Z,8.40
2023-04-07T07:25:49.735Z,7.97
2023-04-07T07:28:21.405Z,7.17
2023-04-07T07:30:53.094Z,7.70
2023-04-07T07:33:24.812Z,7.78
2023-04-07T07:35:57.845Z,7.50
2023-04-07T07:38:29.521Z,8.23
2023-04-07T07:41:01.172Z,8.53
2023-04-07T07:43:32.823Z,8.07
2023-04-07T07:46:04.581Z,8.75
2023-04-07T07:48:36.309Z,7.85
2023-04-07T07:51:09.338Z,7.55
2023-04-07T07:53:40.982Z,8.50
2023-04-07T07:56:12.691Z,8.25
2023-04-07T07:58:44.405Z,8.32
2023-04-07T08:01:16.038Z,8.60
2023-04-07T08:03:48.212Z,7.85
2023-04-07T08:06:21.499Z,8.20
2023-04-07T08:08:53.161Z,8.32
2023-04-07T08:11:24.829Z,8.82
2023-04-07T08:13:56.562Z,8.85
2023-04-07T08:16:28.304Z,8.70
2023-04-07T08:19:00.002Z,8.80
2023-04-07T08:21:33.022Z,8.98
2023-04-07T08:24:04.933Z,9.38
2023-04-07T08:26:36.582Z,8.77
2023-04-07T08:29:08.246Z,8.20
2023-04-07T08:31:39.928Z,6.95
2023-04-07T08:34:11.611Z,8.23
2023-04-07T08:36:44.598Z,7.50
2023-04-07T08:39:16.285Z,8.05
2023-04-07T08:41:47.931Z,7.68
2023-04-07T08:44:19.577Z,7.60
2023-04-07T08:46:51.305Z,8.57
2023-04-07T08:49:23.060Z,8.32
2023-04-07T08:51:56.075Z,8.18
2023-04-07T08:54:28.612Z,8.25
2023-04-07T08:57:00.360Z,7.93
2023-04-07T08:59:32.103Z,7.80
2023-04-07T09:02:04.414Z,8.13
2023-04-07T09:04:36.142Z,8.07
2023-04-07T09:07:09.132Z,8.93
2023-04-07T09:09:40.863Z,8.52
2023-04-07T09:12:12.513Z,8.85
2023-04-07T09:14:44.174Z,8.02
2023-04-07T09:17:15.831Z,7.57
2023-04-07T09:19:47.512Z,8.60
2023-04-07T09:22:36.869Z,8.68
2023-04-07T09:25:13.302Z,8.68
2023-04-07T09:27:55.465Z,8.27
2023-04-07T09:30:27.454Z,7.88
2023-04-07T09:32:59.528Z,7.57
2023-04-07T09:35:31.312Z,8.38
2023-04-07T09:38:05.121Z,8.48
2023-04-07T09:40:36.863Z,7.68
2023-04-07T09:43:14.206Z,7.57
2023-04-07T09:45:45.899Z,7.88
2023-04-07T09:48:20.715Z,8.27
2023-04-07T09:50:52.398Z,7.43
2023-04-07T09:53:28.882Z,8.07
2023-04-07T09:56:00.585Z,6.90
2023-04-07T09:58:32.257Z,7.10
2023-04-07T10:01:04.097Z,8.23
2023-04-07T10:03:35.949Z,7.57
2023-04-07T10:06:07.795Z,8.40
2023-04-07T10:08:41.898Z,8.18
2023-04-07T10:11:13.606Z,8.13
2023-04-07T10:13:45.316Z,8.48
2023-04-07T10:16:17.005Z,8.27
2023-04-07T10:18:48.705Z,9.13
2023-04-07T10:21:20.358Z,8.73
2023-04-07T10:23:58.375Z,9.35
2023-04-07T10:26:30.782Z,10.05
2023-04-07T10:29:04.568Z,9.55
2023-04-07T10:31:37.861Z,10.00
2023-04-07T10:34:09.636Z,10.35
2023-04-07T10:37:08.672Z,10.20
2023-04-07T10:39:41.734Z,10.20
2023-04-07T10:42:46.496Z,10.98
2023-04-07T10:45:18.194Z,11.25
2023-04-07T10:48:11.681Z,11.55
2023-04-07T10:50:44.442Z,11.52
2023-04-07T10:53:16.178Z,11.48
2023-04-07T10:55:49.246Z,12.02
2023-04-07T10:58:22.435Z,11.40
2023-04-07T11:01:20.560Z,12.40
2023-04-07T11:03:57.358Z,11.93
2023-04-07T11:06:29.089Z,12.98
2023-04-07T11:09:00.797Z,12.02
2023-04-07T11:11:42.694Z,12.40
2023-04-07T11:14:25.323Z,10.60
2023-04-07T11:16:57.042Z,11.27
2023-04-07T11:19:28.725Z,10.98
2023-04-07T11:22:26.730Z,10.57
2023-04-07T11:25:01.295Z,10.13
2023-04-07T11:27:34.416Z,12.10
2023-04-07T11:30:08.914Z,11.13
2023-04-07T11:32:40.621Z,11.30
2023-04-07T11:35:12.682Z,10.60
2023-04-07T11:37:44.339Z,10.82
2023-04-07T11:40:31.292Z,10.30
2023-04-07T11:43:15.064Z,10.38
2023-04-07T11:45:46.892Z,9.85
2023-04-07T11:48:29.042Z,9.90
2023-04-07T11:51:00.948Z,9.15
2023-04-07T11:53:33.169Z,8.52
2023-04-07T11:56:05.892Z,9.52
2023-04-07T11:58:38.987Z,9.98
2023-04-07T12:01:10.656Z,9.07
2023-04-07T12:03:55.768Z,8.43
2023-04-07T12:06:28.289Z,9.38
2023-04-07T12:09:00.056Z,8.93
2023-04-07T12:11:31.740Z,9.10
2023-04-07T12:14:04.771Z,8.30
2023-04-07T12:19:09.829Z,9.10
2023-04-07T12:21:41.494Z,7.72
2023-04-07T12:24:13.162Z,7.72
2023-04-07T12:26:44.923Z,7.80
2023-04-07T12:29:18.051Z,7.88
2023-04-07T12:31:51.347Z,8.00
2023-04-07T12:34:23.305Z,7.45
2023-04-07T12:36:54.965Z,7.25
2023-04-07T12:39:26.701Z,7.18
2023-04-07T12:41:58.340Z,7.22
2023-04-07T12:44:31.355Z,6.90
2023-04-07T12:47:03.068Z,7.40
2023-04-07T12:49:34.742Z,6.90
2023-04-07T12:52:06.413Z,7.75
2023-04-07T12:54:38.091Z,8.25
2023-04-07T12:57:09.752Z,7.78
2023-04-07T12:59:42.783Z,8.25
2023-04-07T13:02:14.763Z,8.63
2023-04-07T13:04:46.811Z,9.82
2023-04-07T13:07:18.501Z,10.20
2023-04-07T13:09:50.180Z,10.50
2023-04-07T13:12:21.883Z,9.75
2023-04-07T13:15:00.316Z,10.65
2023-04-07T13:17:32.336Z,10.77
2023-04-07T13:20:04.476Z,9.63
2023-04-07T13:22:36.213Z,9.95
2023-04-07T13:25:08.141Z,9.77
2023-04-07T13:27:39.905Z,10.68
2023-04-07T13:30:13.238Z,9.10
2023-04-07T13:32:44.993Z,9.02
2023-04-07T13:35:16.704Z,9.82
2023-04-07T13:37:48.433Z,8.77
2023-04-07T13:40:20.081Z,7.70
2023-04-07T13:42:51.744Z,7.97
2023-04-07T13:45:24.744Z,8.20
2023-04-07T13:47:57.061Z,8.07
2023-04-07T13:50:28.882Z,8.25
2023-04-07T13:53:00.653Z,8.25
2023-04-07T13:55:32.294Z,7.63
2023-04-07T13:58:03.984Z,7.63
2023-04-07T14:00:37.005Z,8.48
2023-04-07T14:03:08.906Z,7.55
2023-04-07T14:05:40.649Z,8.75
2023-04-07T14:08:12.330Z,7.30
2023-04-07T14:10:43.977Z,7.18
2023-04-07T14:13:15.639Z,6.93
2023-04-07T14:15:49.475Z,6.75
2023-04-07T14:18:21.201Z,6.47
2023-04-07T14:20:52.851Z,8.00
2023-04-07T14:23:36.822Z,7.03
2023-04-07T14:26:10.071Z,7.90
2023-04-07T14:28:41.798Z,7.82
2023-04-07T14:31:14.964Z,7.95
2023-04-07T14:33:46.940Z,8.43
2023-04-07T14:36:18.878Z,9.15
2023-04-07T14:38:50.574Z,9.80
2023-04-07T14:41:22.202Z,8.25
2023-04-07T14:43:54.022Z,9.70
2023-04-07T14:46:27.399Z,8.98
2023-04-07T14:48:59.087Z,9.45
2023-04-07T14:51:30.757Z,8.52
2023-04-07T14:54:02.395Z,9.30
2023-04-07T14:56:34.063Z,8.75
2023-04-07T14:59:05.703Z,9.10
2023-04-07T15:01:38.815Z,8.95
2023-04-07T15:04:10.631Z,8.77
2023-04-07T15:06:42.365Z,8.80
2023-04-07T15:09:14.031Z,8.82
2023-04-07T15:11:45.714Z,9.20
2023-04-07T15:14:17.399Z,9.20
2023-04-07T15:16:50.447Z,8.43
2023-04-07T15:19:22.130Z,9.02
2023-04-07T15:21:53.821Z,9.15
2023-04-07T15:24:25.485Z,8.75
2023-04-07T15:26:57.166Z,9.23
2023-04-07T15:29:28.812Z,9.52
2023-04-07T15:32:01.816Z,9.13
2023-04-07T15:34:33.471Z,9.23
2023-04-07T15:37:05.163Z,9.23
2023-04-07T15:39:36.799Z,9.52
2023-04-07T15:42:08.554Z,10.05
2023-04-07T15:44:40.269Z,9.73
2023-04-07T15:47:13.337Z,9.73
2023-04-07T15:49:44.987Z,10.63
2023-04-07T15:52:16.642Z,9.90
2023-04-07T15:54:48.293Z,10.32
2023-04-07T15:57:19.953Z,9.15
2023-04-07T15:59:51.648Z,8.85
2023-04-07T16:02:24.938Z,8.88
2023-04-07T16:04:57.081Z,9.05
2023-04-07T16:07:28.761Z,8.60
2023-04-07T16:10:00.426Z,7.85
2023-04-07T16:12:32.098Z,8.50
2023-04-07T16:15:04.464Z,7.53
2023-04-07T16:17:37.683Z,8.38
2023-04-07T16:20:09.945Z,7.90
2023-04-07T16:22:41.695Z,7.57
2023-04-07T16:25:13.404Z,8.27
2023-04-07T16:27:45.080Z,7.55
2023-04-07T16:30:16.735Z,7.65
2023-04-07T16:32:49.829Z,7.30
2023-04-07T16:35:21.623Z,8.40
2023-04-07T16:37:53.319Z,7.28
2023-04-07T16:40:25.208Z,7.63
2023-04-07T16:42:56.889Z,8.05
2023-04-07T16:45:28.761Z,7.57
2023-04-07T16:48:04.328Z,8.40
2023-04-07T16:50:36.939Z,8.30
2023-04-07T16:53:08.578Z,7.97
2023-04-07T16:55:40.248Z,8.07
2023-04-07T16:58:11.887Z,8.15
2023-04-07T17:00:43.555Z,8.23
2023-04-07T17:03:16.732Z,8.60
2023-04-07T17:05:48.633Z,10.35
2023-04-07T17:08:20.267Z,8.10
2023-04-07T17:10:51.923Z,10.23
2023-04-07T17:13:23.649Z,8.57
2023-04-07T17:15:55.340Z,8.40
2023-04-07T17:18:28.367Z,9.00
2023-04-07T17:21:00.042Z,9.85
2023-04-07T17:23:31.716Z,8.52
2023-04-07T17:26:03.396Z,9.48
2023-04-07T17:28:35.044Z,8.55
2023-04-07T17:31:06.735Z,8.70
2023-04-07T17:33:39.769Z,8.88
2023-04-07T17:36:11.483Z,8.33
2023-04-07T17:38:44.217Z,7.57
2023-04-07T17:41:15.892Z,8.13
2023-04-07T17:43:47.681Z,9.40
2023-04-07T17:46:19.565Z,8.23
2023-04-07T17:48:52.614Z,8.40
2023-04-07T17:51:24.294Z,8.85
2023-04-07T17:53:55.941Z,8.07
2023-04-07T17:56:27.654Z,8.57
2023-04-07T17:58:59.286Z,9.57
2023-04-07T18:01:31.817Z,8.90
2023-04-07T18:04:06.636Z,8.43
2023-04-07T18:06:38.506Z,8.40
2023-04-07T18:09:10.130Z,8.97
2023-04-07T18:11:41.802Z,8.75
2023-04-07T18:14:13.434Z,8.02
2023-04-07T18:16:45.115Z,8.07
2023-04-07T18:19:18.097Z,9.50
2023-04-07T18:21:52.372Z,8.70
2023-04-07T18:24:24.784Z,9.10
2023-04-07T18:26:56.446Z,9.33
2023-04-07T18:29:28.115Z,9.33
2023-04-07T18:31:59.776Z,9.27
2023-04-07T18:34:32.784Z,10.23
2023-04-07T18:37:04.449Z,10.00
2023-04-07T18:39:36.087Z,9.70
2023-04-07T18:42:07.745Z,10.00
2023-04-07T18:44:39.382Z,10.52
2023-04-07T18:47:11.041Z,10.55
2023-04-07T18:49:44.027Z,10.90
2023-04-07T18:52:15.699Z,11.73
2023-04-07T18:54:47.338Z,10.33
2023-04-07T18:57:19.011Z,10.50
2023-04-07T18:59:50.661Z,11.27
2023-04-07T19:02:22.643Z,11.30
2023-04-07T19:04:55.830Z,10.87
2023-04-07T19:07:27.497Z,11.53
2023-04-07T19:09:59.137Z,11.70
2023-04-07T19:12:30.803Z,12.53
2023-04-07T19:15:02.467Z,11.63
2023-04-07T19:17:34.159Z,11.53
2023-04-07T19:20:08.431Z,12.50
2023-04-07T19:22:40.120Z,12.37
2023-04-07T19:25:11.785Z,12.20
2023-04-07T19:27:43.441Z,13.40
2023-04-07T19:30:15.083Z,12.43
2023-04-07T19:32:46.879Z,14.50
2023-04-07T19:35:19.877Z,11.30
2023-04-07T19:37:51.570Z,11.87
2023-04-07T19:40:23.431Z,11.90
2023-04-07T19:42:55.115Z,12.17
2023-04-07T19:45:26.818Z,12.50
2023-04-07T19:47:58.577Z,12.93
2023-04-07T19:50:31.617Z,12.67
2023-04-07T19:53:03.279Z,12.40
2023-04-07T19:55:34.965Z,11.87
2023-04-07T19:58:06.608Z,12.03
2023-04-07T20:00:38.411Z,12.03
2023-04-07T20:03:10.171Z,12.10
2023-04-07T20:05:43.380Z,12.10
2023-04-07T20:08:15.017Z,12.43
2023-04-07T20:10:46.665Z,12.90
2023-04-07T20:13:18.318Z,13.05
2023-04-07T20:15:50.010Z,12.35
2023-04-07T20:18:21.671Z,11.63
2023-04-07T20:20:59.478Z,12.80
2023-04-07T20:23:31.150Z,12.80
2023-04-07T20:26:02.822Z,11.77
2023-04-07T20:28:34.479Z,11.67
2023-04-07T20:31:06.207Z,12.70
2023-04-07T20:33:37.876Z,12.90
2023-04-07T20:36:10.878Z,12.50
2023-04-07T20:38:42.504Z,12.40
2023-04-07T20:41:14.643Z,12.60
2023-04-07T20:43:46.341Z,12.53
2023-04-07T20:46:18.064Z,12.47
2023-04-07T20:48:50.070Z,12.00
2023-04-07T20:51:23.475Z,11.87
2023-04-07T20:53:55.133Z,12.87
2023-04-07T20:56:26.796Z,12.50
2023-04-07T20:58:58.453Z,12.03
2023-04-07T21:01:30.248Z,13.53
2023-04-07T21:04:02.070Z,13.47
2023-04-07T21:06:35.209Z,12.75
2023-04-07T21:09:06.846Z,12.17
2023-04-07T21:11:38.522Z,12.30
2023-04-07T21:14:10.211Z,13.17
2023-04-07T21:16:41.875Z,12.53
2023-04-07T21:19:13.506Z,12.13
2023-04-07T21:21:46.544Z,11.98
2023-04-07T21:24:18.218Z,11.93
2023-04-07T21:26:50.455Z,12.23
2023-04-07T21:29:22.148Z,12.93
2023-04-07T21:31:53.825Z,11.73
2023-04-07T21:34:25.470Z,12.90
2023-04-07T21:36:58.486Z,12.40
2023-04-07T21:39:30.141Z,11.87
2023-04-07T21:42:01.885Z,12.23
2023-04-07T21:44:33.556Z,11.77
2023-04-07T21:47:05.213Z,12.23
2023-04-07T21:49:36.902Z,12.30
2023-04-07T21:52:09.973Z,11.67
2023-04-07T21:54:41.676Z,12.43
2023-04-07T21:57:13.385Z,11.73
2023-04-07T21:59:45.055Z,11.43
